sensor_id;sensor_type;location;lat;lon;timestamp;temperature;humidity
33328;DHT22;19692;52.998;9.116;2023-01-24T00:01:21;2.80;99.90
33328;DHT22;19692;52.998;9.116;2023-01-24T00:03:47;2.80;99.90
33328;DHT22;19692;52.998;9.116;2023-01-24T00:06:14;2.80;99.90
33328;DHT22;19692;52.998;9.116;2023-01-24T00:08:40;2.80;99.90
33328;DHT22;19692;52.998;9.116;2023-01-24T00:11:09;2.80;99.90
33328;DHT22;19692;52.998;9.116;2023-01-24T00:13:36;2.80;99.90
33328;DHT22;19692;52.998;9.116;2023-01-24T00:16:15;2.90;99.90
33328;DHT22;19692;52.998;9.116;2023-01-24T00:18:43;2.90;99.90
33328;DHT22;19692;52.998;9.116;2023-01-24T00:21:13;2.90;99.90
33328;DHT22;19692;52.998;9.116;2023-01-24T00:23:41;2.90;99.90
33328;DHT22;19692;52.998;9.116;2023-01-24T00:26:08;2.90;99.90
33328;DHT22;19692;52.998;9.116;2023-01-24T00:28:35;2.90;99.90
33328;DHT22;19692;52.998;9.116;2023-01-24T00:31:01;2.80;99.90
33328;DHT22;19692;52.998;9.116;2023-01-24T00:33:27;2.80;99.90
33328;DHT22;19692;52.998;9.116;2023-01-24T00:35:53;2.80;99.90
33328;DHT22;19692;52.998;9.116;2023-01-24T00:38:20;2.90;99.90
33328;DHT22;19692;52.998;9.116;2023-01-24T00:40:46;2.90;99.90
33328;DHT22;19692;52.998;9.116;2023-01-24T00:43:12;2.90;99.90
33328;DHT22;19692;52.998;9.116;2023-01-24T00:45:39;2.80;99.90
33328;DHT22;19692;52.998;9.116;2023-01-24T00:48:06;2.90;99.90
33328;DHT22;19692;52.998;9.116;2023-01-24T00:50:33;2.90;99.90
33328;DHT22;19692;52.998;9.116;2023-01-24T00:53:00;2.90;99.90
33328;DHT22;19692;52.998;9.116;2023-01-24T00:55:26;2.90;99.90
33328;DHT22;19692;52.998;9.116;2023-01-24T00:57:52;2.90;99.90
33328;DHT22;19692;52.998;9.116;2023-01-24T01:00:18;2.90;99.90
33328;DHT22;19692;52.998;9.116;2023-01-24T01:02:44;2.90;99.90
33328;DHT22;19692;52.998;9.116;2023-01-24T01:05:10;2.80;99.90
33328;DHT22;19692;52.998;9.116;2023-01-24T01:07:35;2.80;99.90
33328;DHT22;19692;52.998;9.116;2023-01-24T01:10:02;2.80;99.90
33328;DHT22;19692;52.998;9.116;2023-01-24T01:12:29;2.80;99.90
33328;DHT22;19692;52.998;9.116;2023-01-24T01:14:55;2.80;99.90
33328;DHT22;19692;52.998;9.116;2023-01-24T01:17:21;2.80;99.90
33328;DHT22;19692;52.998;9.116;2023-01-24T01:19:50;2.90;99.90
33328;DHT22;19692;52.998;9.116;2023-01-24T01:22:17;2.80;99.90
33328;DHT22;19692;52.998;9.116;2023-01-24T01:24:42;2.80;99.90
33328;DHT22;19692;52.998;9.116;2023-01-24T01:27:08;2.90;99.90
33328;DHT22;19692;52.998;9.116;2023-01-24T01:29:34;2.80;99.90
33328;DHT22;19692;52.998;9.116;2023-01-24T01:32:00;2.80;99.90
33328;DHT22;19692;52.998;9.116;2023-01-24T01:34:29;2.80;99.90
33328;DHT22;19692;52.998;9.116;2023-01-24T01:36:55;2.80;99.90
33328;DHT22;19692;52.998;9.116;2023-01-24T01:39:20;2.80;99.90
33328;DHT22;19692;52.998;9.116;2023-01-24T01:41:46;2.80;99.90
33328;DHT22;19692;52.998;9.116;2023-01-24T01:44:23;2.80;99.90
33328;DHT22;19692;52.998;9.116;2023-01-24T01:49:58;2.80;99.90
33328;DHT22;19692;52.998;9.116;2023-01-24T01:52:35;2.80;99.90
33328;DHT22;19692;52.998;9.116;2023-01-24T01:55:07;2.80;99.90
33328;DHT22;19692;52.998;9.116;2023-01-24T01:57:35;2.80;99.90
33328;DHT22;19692;52.998;9.116;2023-01-24T02:00:10;2.80;99.90
33328;DHT22;19692;52.998;9.116;2023-01-24T02:02:38;2.90;99.90
33328;DHT22;19692;52.998;9.116;2023-01-24T02:05:08;2.80;99.90
33328;DHT22;19692;52.998;9.116;2023-01-24T02:07:44;2.80;99.90
33328;DHT22;19692;52.998;9.116;2023-01-24T02:10:12;2.80;99.90
33328;DHT22;19692;52.998;9.116;2023-01-24T02:12:44;2.80;99.90
33328;DHT22;19692;52.998;9.116;2023-01-24T02:15:17;2.80;99.90
33328;DHT22;19692;52.998;9.116;2023-01-24T02:18:04;2.80;99.90
33328;DHT22;19692;52.998;9.116;2023-01-24T02:20:44;2.80;99.90
33328;DHT22;19692;52.998;9.116;2023-01-24T02:26:16;2.90;99.90
33328;DHT22;19692;52.998;9.116;2023-01-24T02:28:47;2.90;99.90
33328;DHT22;19692;52.998;9.116;2023-01-24T02:31:16;2.80;99.90
33328;DHT22;19692;52.998;9.116;2023-01-24T02:33:41;2.80;99.90
33328;DHT22;19692;52.998;9.116;2023-01-24T02:38:54;2.80;99.90
33328;DHT22;19692;52.998;9.116;2023-01-24T02:41:28;2.80;99.90
33328;DHT22;19692;52.998;9.116;2023-01-24T02:43:58;2.80;99.90
33328;DHT22;19692;52.998;9.116;2023-01-24T02:46:29;2.80;99.90
33328;DHT22;19692;52.998;9.116;2023-01-24T02:48:55;2.80;99.90
33328;DHT22;19692;52.998;9.116;2023-01-24T02:51:21;2.80;99.90
33328;DHT22;19692;52.998;9.116;2023-01-24T02:54:05;2.90;99.90
33328;DHT22;19692;52.998;9.116;2023-01-24T02:56:31;2.80;99.90
33328;DHT22;19692;52.998;9.116;2023-01-24T02:59:15;2.90;99.90
33328;DHT22;19692;52.998;9.116;2023-01-24T03:01:40;2.90;99.90
33328;DHT22;19692;52.998;9.116;2023-01-24T03:04:06;2.80;99.90
33328;DHT22;19692;52.998;9.116;2023-01-24T03:06:32;2.80;99.90
33328;DHT22;19692;52.998;9.116;2023-01-24T03:08:58;2.80;99.90
33328;DHT22;19692;52.998;9.116;2023-01-24T03:11:24;2.80;99.90
33328;DHT22;19692;52.998;9.116;2023-01-24T03:13:50;2.80;99.90
33328;DHT22;19692;52.998;9.116;2023-01-24T03:16:33;2.70;99.90
33328;DHT22;19692;52.998;9.116;2023-01-24T03:19:18;2.80;99.90
33328;DHT22;19692;52.998;9.116;2023-01-24T03:22:02;2.80;99.90
33328;DHT22;19692;52.998;9.116;2023-01-24T03:24:46;2.70;99.90
33328;DHT22;19692;52.998;9.116;2023-01-24T03:27:30;2.70;99.90
33328;DHT22;19692;52.998;9.116;2023-01-24T03:30:15;2.80;99.90
33328;DHT22;19692;52.998;9.116;2023-01-24T03:33:01;2.80;99.90
33328;DHT22;19692;52.998;9.116;2023-01-24T03:35:48;2.80;99.90
33328;DHT22;19692;52.998;9.116;2023-01-24T03:38:21;2.80;99.90
33328;DHT22;19692;52.998;9.116;2023-01-24T03:41:06;2.80;99.90
33328;DHT22;19692;52.998;9.116;2023-01-24T03:43:31;2.80;99.90
33328;DHT22;19692;52.998;9.116;2023-01-24T03:45:58;2.80;99.90
33328;DHT22;19692;52.998;9.116;2023-01-24T03:48:24;2.80;99.90
33328;DHT22;19692;52.998;9.116;2023-01-24T03:50:52;2.80;99.90
33328;DHT22;19692;52.998;9.116;2023-01-24T03:53:37;2.80;99.90
33328;DHT22;19692;52.998;9.116;2023-01-24T03:56:03;2.80;99.90
33328;DHT22;19692;52.998;9.116;2023-01-24T03:58:30;2.80;99.90
33328;DHT22;19692;52.998;9.116;2023-01-24T04:00:56;2.80;99.90
33328;DHT22;19692;52.998;9.116;2023-01-24T04:03:23;2.80;99.90
33328;DHT22;19692;52.998;9.116;2023-01-24T04:05:49;2.80;99.90
33328;DHT22;19692;52.998;9.116;2023-01-24T04:08:17;2.80;99.90
33328;DHT22;19692;52.998;9.116;2023-01-24T04:10:43;2.70;99.90
33328;DHT22;19692;52.998;9.116;2023-01-24T04:13:12;2.70;99.90
33328;DHT22;19692;52.998;9.116;2023-01-24T04:15:38;2.70;99.90
33328;DHT22;19692;52.998;9.116;2023-01-24T04:18:05;2.70;99.90
33328;DHT22;19692;52.998;9.116;2023-01-24T04:20:33;2.70;99.90
33328;DHT22;19692;52.998;9.116;2023-01-24T04:23:05;2.60;99.90
33328;DHT22;19692;52.998;9.116;2023-01-24T04:25:32;2.60;99.90
33328;DHT22;19692;52.998;9.116;2023-01-24T04:27:58;2.70;99.90
33328;DHT22;19692;52.998;9.116;2023-01-24T04:30:23;2.60;99.90
33328;DHT22;19692;52.998;9.116;2023-01-24T04:32:49;2.70;99.90
33328;DHT22;19692;52.998;9.116;2023-01-24T04:35:27;2.70;99.90
33328;DHT22;19692;52.998;9.116;2023-01-24T04:37:57;2.70;99.90
33328;DHT22;19692;52.998;9.116;2023-01-24T04:40:24;2.60;99.90
33328;DHT22;19692;52.998;9.116;2023-01-24T04:42:50;2.60;99.90
33328;DHT22;19692;52.998;9.116;2023-01-24T04:45:16;2.60;99.90
33328;DHT22;19692;52.998;9.116;2023-01-24T04:47:42;2.60;99.90
33328;DHT22;19692;52.998;9.116;2023-01-24T04:50:08;2.60;99.90
33328;DHT22;19692;52.998;9.116;2023-01-24T04:52:34;2.70;99.90
33328;DHT22;19692;52.998;9.116;2023-01-24T04:55:00;2.70;99.90
33328;DHT22;19692;52.998;9.116;2023-01-24T04:57:25;2.70;99.90
33328;DHT22;19692;52.998;9.116;2023-01-24T04:59:51;2.70;99.90
33328;DHT22;19692;52.998;9.116;2023-01-24T05:02:17;2.60;99.90
33328;DHT22;19692;52.998;9.116;2023-01-24T05:04:43;2.60;99.90
33328;DHT22;19692;52.998;9.116;2023-01-24T05:07:09;2.60;99.90
33328;DHT22;19692;52.998;9.116;2023-01-24T05:09:35;2.60;99.90
33328;DHT22;19692;52.998;9.116;2023-01-24T05:12:01;2.60;99.90
33328;DHT22;19692;52.998;9.116;2023-01-24T05:14:27;2.60;99.90
33328;DHT22;19692;52.998;9.116;2023-01-24T05:16:52;2.60;99.90
33328;DHT22;19692;52.998;9.116;2023-01-24T05:19:18;2.60;99.90
33328;DHT22;19692;52.998;9.116;2023-01-24T05:21:44;2.60;99.90
33328;DHT22;19692;52.998;9.116;2023-01-24T05:24:09;2.60;99.90
33328;DHT22;19692;52.998;9.116;2023-01-24T05:26:35;2.60;99.90
33328;DHT22;19692;52.998;9.116;2023-01-24T05:29:01;2.50;99.90
33328;DHT22;19692;52.998;9.116;2023-01-24T05:31:27;2.60;99.90
33328;DHT22;19692;52.998;9.116;2023-01-24T05:33:53;2.50;99.90
33328;DHT22;19692;52.998;9.116;2023-01-24T05:36:21;2.50;99.90
33328;DHT22;19692;52.998;9.116;2023-01-24T05:38:48;2.50;99.90
33328;DHT22;19692;52.998;9.116;2023-01-24T05:41:15;2.50;99.90
33328;DHT22;19692;52.998;9.116;2023-01-24T05:43:42;2.50;99.90
33328;DHT22;19692;52.998;9.116;2023-01-24T05:46:17;2.50;99.90
33328;DHT22;19692;52.998;9.116;2023-01-24T05:48:45;2.50;99.90
33328;DHT22;19692;52.998;9.116;2023-01-24T05:51:14;2.50;99.90
33328;DHT22;19692;52.998;9.116;2023-01-24T05:53:42;2.50;99.90
33328;DHT22;19692;52.998;9.116;2023-01-24T05:56:14;2.50;99.90
33328;DHT22;19692;52.998;9.116;2023-01-24T05:58:44;2.50;99.90
33328;DHT22;19692;52.998;9.116;2023-01-24T06:01:16;2.40;99.90
33328;DHT22;19692;52.998;9.116;2023-01-24T06:03:50;2.40;99.90
33328;DHT22;19692;52.998;9.116;2023-01-24T06:06:20;2.40;99.90
33328;DHT22;19692;52.998;9.116;2023-01-24T06:08:47;2.40;99.90
33328;DHT22;19692;52.998;9.116;2023-01-24T06:11:19;2.40;99.90
33328;DHT22;19692;52.998;9.116;2023-01-24T06:13:46;2.40;99.90
33328;DHT22;19692;52.998;9.116;2023-01-24T06:16:17;2.40;99.90
33328;DHT22;19692;52.998;9.116;2023-01-24T06:18:45;2.40;99.90
33328;DHT22;19692;52.998;9.116;2023-01-24T06:21:24;2.40;99.90
33328;DHT22;19692;52.998;9.116;2023-01-24T06:23:52;2.40;99.90
33328;DHT22;19692;52.998;9.116;2023-01-24T06:26:18;2.40;99.90
33328;DHT22;19692;52.998;9.116;2023-01-24T06:28:44;2.40;99.90
33328;DHT22;19692;52.998;9.116;2023-01-24T06:31:32;2.40;99.90
33328;DHT22;19692;52.998;9.116;2023-01-24T06:37:44;2.40;99.90
33328;DHT22;19692;52.998;9.116;2023-01-24T06:40:16;2.40;99.90
33328;DHT22;19692;52.998;9.116;2023-01-24T06:42:43;2.40;99.90
33328;DHT22;19692;52.998;9.116;2023-01-24T06:45:10;2.40;99.90
33328;DHT22;19692;52.998;9.116;2023-01-24T06:47:36;2.30;99.90
33328;DHT22;19692;52.998;9.116;2023-01-24T06:50:02;2.30;99.90
33328;DHT22;19692;52.998;9.116;2023-01-24T06:52:30;2.30;99.90
33328;DHT22;19692;52.998;9.116;2023-01-24T06:54:56;2.30;99.90
33328;DHT22;19692;52.998;9.116;2023-01-24T06:57:21;2.30;99.90
33328;DHT22;19692;52.998;9.116;2023-01-24T06:59:47;2.30;99.90
33328;DHT22;19692;52.998;9.116;2023-01-24T07:02:13;2.30;99.90
33328;DHT22;19692;52.998;9.116;2023-01-24T07:04:38;2.30;99.90
33328;DHT22;19692;52.998;9.116;2023-01-24T07:07:04;2.30;99.90
33328;DHT22;19692;52.998;9.116;2023-01-24T07:09:33;2.30;99.90
33328;DHT22;19692;52.998;9.116;2023-01-24T07:11:59;2.30;99.90
33328;DHT22;19692;52.998;9.116;2023-01-24T07:14:25;2.30;99.90
33328;DHT22;19692;52.998;9.116;2023-01-24T07:16:51;2.40;99.90
33328;DHT22;19692;52.998;9.116;2023-01-24T07:19:20;2.30;99.90
33328;DHT22;19692;52.998;9.116;2023-01-24T07:21:47;2.30;99.90
33328;DHT22;19692;52.998;9.116;2023-01-24T07:24:19;2.30;99.90
33328;DHT22;19692;52.998;9.116;2023-01-24T07:26:46;2.30;99.90
33328;DHT22;19692;52.998;9.116;2023-01-24T07:29:13;2.30;99.90
33328;DHT22;19692;52.998;9.116;2023-01-24T07:31:39;2.20;99.90
33328;DHT22;19692;52.998;9.116;2023-01-24T07:34:05;2.20;99.90
33328;DHT22;19692;52.998;9.116;2023-01-24T07:36:31;2.20;99.90
33328;DHT22;19692;52.998;9.116;2023-01-24T07:38:57;2.20;99.90
33328;DHT22;19692;52.998;9.116;2023-01-24T07:41:23;2.30;99.90
33328;DHT22;19692;52.998;9.116;2023-01-24T07:43:49;2.30;99.90
33328;DHT22;19692;52.998;9.116;2023-01-24T07:46:18;2.30;99.90
33328;DHT22;19692;52.998;9.116;2023-01-24T07:48:45;2.20;99.90
33328;DHT22;19692;52.998;9.116;2023-01-24T07:51:11;2.20;99.90
33328;DHT22;19692;52.998;9.116;2023-01-24T07:53:36;2.20;99.90
33328;DHT22;19692;52.998;9.116;2023-01-24T07:56:03;2.20;99.90
33328;DHT22;19692;52.998;9.116;2023-01-24T07:58:30;2.30;99.90
33328;DHT22;19692;52.998;9.116;2023-01-24T08:00:56;2.30;99.90
33328;DHT22;19692;52.998;9.116;2023-01-24T08:03:22;2.20;99.90
33328;DHT22;19692;52.998;9.116;2023-01-24T08:05:47;2.10;99.90
33328;DHT22;19692;52.998;9.116;2023-01-24T08:08:13;2.10;99.90
33328;DHT22;19692;52.998;9.116;2023-01-24T08:10:39;2.20;99.90
33328;DHT22;19692;52.998;9.116;2023-01-24T08:13:05;2.20;99.90
33328;DHT22;19692;52.998;9.116;2023-01-24T08:15:30;2.20;99.90
33328;DHT22;19692;52.998;9.116;2023-01-24T08:17:56;2.20;99.90
33328;DHT22;19692;52.998;9.116;2023-01-24T08:20:22;2.20;99.90
33328;DHT22;19692;52.998;9.116;2023-01-24T08:22:48;2.20;99.90
33328;DHT22;19692;52.998;9.116;2023-01-24T08:25:13;2.20;99.90
33328;DHT22;19692;52.998;9.116;2023-01-24T08:27:40;2.20;99.90
33328;DHT22;19692;52.998;9.116;2023-01-24T08:30:08;2.20;99.90
33328;DHT22;19692;52.998;9.116;2023-01-24T08:32:36;2.30;99.90
33328;DHT22;19692;52.998;9.116;2023-01-24T08:35:03;2.30;99.90
33328;DHT22;19692;52.998;9.116;2023-01-24T08:37:32;2.20;99.90
33328;DHT22;19692;52.998;9.116;2023-01-24T08:39:58;2.20;99.90
33328;DHT22;19692;52.998;9.116;2023-01-24T08:42:24;2.30;99.90
33328;DHT22;19692;52.998;9.116;2023-01-24T08:44:50;2.20;99.90
33328;DHT22;19692;52.998;9.116;2023-01-24T08:47:17;2.30;99.90
33328;DHT22;19692;52.998;9.116;2023-01-24T08:49:43;2.30;99.90
33328;DHT22;19692;52.998;9.116;2023-01-24T08:52:09;2.30;99.90
33328;DHT22;19692;52.998;9.116;2023-01-24T08:54:35;2.30;99.90
33328;DHT22;19692;52.998;9.116;2023-01-24T08:57:05;2.20;99.90
33328;DHT22;19692;52.998;9.116;2023-01-24T08:59:32;2.30;99.90
33328;DHT22;19692;52.998;9.116;2023-01-24T09:01:57;2.30;99.90
33328;DHT22;19692;52.998;9.116;2023-01-24T09:04:23;2.20;99.90
33328;DHT22;19692;52.998;9.116;2023-01-24T09:06:52;2.30;99.90
33328;DHT22;19692;52.998;9.116;2023-01-24T09:09:18;2.30;99.90
33328;DHT22;19692;52.998;9.116;2023-01-24T09:11:44;2.30;99.90
33328;DHT22;19692;52.998;9.116;2023-01-24T09:14:10;2.30;99.90
33328;DHT22;19692;52.998;9.116;2023-01-24T09:16:35;2.30;99.90
33328;DHT22;19692;52.998;9.116;2023-01-24T09:19:01;2.30;99.90
33328;DHT22;19692;52.998;9.116;2023-01-24T09:21:27;2.30;99.90
33328;DHT22;19692;52.998;9.116;2023-01-24T09:23:54;2.40;99.90
33328;DHT22;19692;52.998;9.116;2023-01-24T09:26:20;2.40;99.90
33328;DHT22;19692;52.998;9.116;2023-01-24T09:28:46;2.40;99.90
33328;DHT22;19692;52.998;9.116;2023-01-24T09:31:12;2.40;99.90
33328;DHT22;19692;52.998;9.116;2023-01-24T09:33:38;2.40;99.90
33328;DHT22;19692;52.998;9.116;2023-01-24T09:36:04;2.30;99.90
33328;DHT22;19692;52.998;9.116;2023-01-24T09:38:32;2.30;99.90
33328;DHT22;19692;52.998;9.116;2023-01-24T09:43:58;2.30;99.90
33328;DHT22;19692;52.998;9.116;2023-01-24T09:46:35;2.30;99.90
33328;DHT22;19692;52.998;9.116;2023-01-24T09:49:15;2.40;99.90
33328;DHT22;19692;52.998;9.116;2023-01-24T09:51:46;2.40;99.90
33328;DHT22;19692;52.998;9.116;2023-01-24T09:54:37;2.40;99.90
33328;DHT22;19692;52.998;9.116;2023-01-24T09:57:40;2.40;99.90
33328;DHT22;19692;52.998;9.116;2023-01-24T10:00:38;2.40;99.90
33328;DHT22;19692;52.998;9.116;2023-01-24T10:03:21;2.40;99.90
33328;DHT22;19692;52.998;9.116;2023-01-24T10:05:53;2.40;99.90
33328;DHT22;19692;52.998;9.116;2023-01-24T10:19:30;2.30;99.90
33328;DHT22;19692;52.998;9.116;2023-01-24T10:22:24;2.30;99.90
33328;DHT22;19692;52.998;9.116;2023-01-24T10:25:44;2.30;99.90
33328;DHT22;19692;52.998;9.116;2023-01-24T10:27:53;2.40;99.90
33328;DHT22;19692;52.998;9.116;2023-01-24T10:30:28;2.30;99.90
33328;DHT22;19692;52.998;9.116;2023-01-24T10:33:18;2.30;99.90
33328;DHT22;19692;52.998;9.116;2023-01-24T10:36:08;2.30;99.90
33328;DHT22;19692;52.998;9.116;2023-01-24T10:38:38;2.30;99.90
33328;DHT22;19692;52.998;9.116;2023-01-24T10:41:16;2.30;99.90
33328;DHT22;19692;52.998;9.116;2023-01-24T10:43:48;2.30;99.90
33328;DHT22;19692;52.998;9.116;2023-01-24T10:49:20;2.30;99.90
33328;DHT22;19692;52.998;9.116;2023-01-24T10:52:15;2.30;99.90
33328;DHT22;19692;52.998;9.116;2023-01-24T10:54:48;2.30;99.90
33328;DHT22;19692;52.998;9.116;2023-01-24T10:57:17;2.30;99.90
33328;DHT22;19692;52.998;9.116;2023-01-24T11:02:48;2.30;99.90
33328;DHT22;19692;52.998;9.116;2023-01-24T11:05:16;2.30;99.90
33328;DHT22;19692;52.998;9.116;2023-01-24T11:07:54;2.30;99.90
33328;DHT22;19692;52.998;9.116;2023-01-24T11:10:34;2.30;99.90
33328;DHT22;19692;52.998;9.116;2023-01-24T11:13:03;2.40;99.90
33328;DHT22;19692;52.998;9.116;2023-01-24T11:15:50;2.40;99.90
33328;DHT22;19692;52.998;9.116;2023-01-24T11:18:25;2.40;99.90
33328;DHT22;19692;52.998;9.116;2023-01-24T11:21:13;2.40;99.90
33328;DHT22;19692;52.998;9.116;2023-01-24T11:23:41;2.50;99.90
33328;DHT22;19692;52.998;9.116;2023-01-24T11:26:23;2.40;99.90
33328;DHT22;19692;52.998;9.116;2023-01-24T11:29:02;2.50;99.90
33328;DHT22;19692;52.998;9.116;2023-01-24T11:31:39;2.40;99.90
33328;DHT22;19692;52.998;9.116;2023-01-24T11:37:37;2.30;99.90
33328;DHT22;19692;52.998;9.116;2023-01-24T11:40:19;2.30;99.90
33328;DHT22;19692;52.998;9.116;2023-01-24T11:43:12;2.30;99.90
33328;DHT22;19692;52.998;9.116;2023-01-24T11:45:59;2.40;99.90
33328;DHT22;19692;52.998;9.116;2023-01-24T11:48:44;2.20;99.90
33328;DHT22;19692;52.998;9.116;2023-01-24T11:51:27;2.30;99.90
33328;DHT22;19692;52.998;9.116;2023-01-24T11:57:22;2.20;99.90
33328;DHT22;19692;52.998;9.116;2023-01-24T12:00:06;2.30;99.90
33328;DHT22;19692;52.998;9.116;2023-01-24T12:03:09;2.30;99.90
33328;DHT22;19692;52.998;9.116;2023-01-24T12:06:00;2.30;99.90
33328;DHT22;19692;52.998;9.116;2023-01-24T12:11:50;2.20;99.90
33328;DHT22;19692;52.998;9.116;2023-01-24T12:17:43;2.20;99.90
33328;DHT22;19692;52.998;9.116;2023-01-24T12:26:13;2.10;99.90
33328;DHT22;19692;52.998;9.116;2023-01-24T12:29:03;2.20;99.90
33328;DHT22;19692;52.998;9.116;2023-01-24T12:35:21;2.20;99.90
33328;DHT22;19692;52.998;9.116;2023-01-24T12:38:13;2.20;99.90
33328;DHT22;19692;52.998;9.116;2023-01-24T12:41:02;2.10;99.90
33328;DHT22;19692;52.998;9.116;2023-01-24T12:44:15;2.20;99.90
33328;DHT22;19692;52.998;9.116;2023-01-24T12:47:10;2.10;99.90
33328;DHT22;19692;52.998;9.116;2023-01-24T12:52:50;1.90;99.90
33328;DHT22;19692;52.998;9.116;2023-01-24T12:55:38;2.00;99.90
33328;DHT22;19692;52.998;9.116;2023-01-24T12:58:23;2.00;99.90
33328;DHT22;19692;52.998;9.116;2023-01-24T13:04:47;2.00;99.90
33328;DHT22;19692;52.998;9.116;2023-01-24T13:10:37;2.00;99.90
33328;DHT22;19692;52.998;9.116;2023-01-24T13:13:21;2.00;99.90
33328;DHT22;19692;52.998;9.116;2023-01-24T13:18:42;2.10;99.90
33328;DHT22;19692;52.998;9.116;2023-01-24T13:24:50;2.00;99.90
33328;DHT22;19692;52.998;9.116;2023-01-24T13:30:22;2.10;99.90
33328;DHT22;19692;52.998;9.116;2023-01-24T13:32:53;2.10;99.90
33328;DHT22;19692;52.998;9.116;2023-01-24T13:35:24;2.00;99.90
33328;DHT22;19692;52.998;9.116;2023-01-24T13:38:02;2.10;99.90
33328;DHT22;19692;52.998;9.116;2023-01-24T13:41:04;2.00;99.90
33328;DHT22;19692;52.998;9.116;2023-01-24T13:44:30;2.00;99.90
33328;DHT22;19692;52.998;9.116;2023-01-24T13:47:21;2.00;99.90
33328;DHT22;19692;52.998;9.116;2023-01-24T13:55:00;1.80;99.90
33328;DHT22;19692;52.998;9.116;2023-01-24T13:57:35;1.70;99.90
33328;DHT22;19692;52.998;9.116;2023-01-24T14:05:44;1.90;99.90
33328;DHT22;19692;52.998;9.116;2023-01-24T14:11:06;1.90;99.90
33328;DHT22;19692;52.998;9.116;2023-01-24T14:21:55;2.00;99.90
33328;DHT22;19692;52.998;9.116;2023-01-24T14:24:29;1.90;99.90
33328;DHT22;19692;52.998;9.116;2023-01-24T14:26:59;1.90;99.90
33328;DHT22;19692;52.998;9.116;2023-01-24T14:29:42;1.90;99.90
33328;DHT22;19692;52.998;9.116;2023-01-24T14:32:20;1.70;99.90
33328;DHT22;19692;52.998;9.116;2023-01-24T14:35:08;1.60;99.90
33328;DHT22;19692;52.998;9.116;2023-01-24T14:37:41;1.70;99.90
33328;DHT22;19692;52.998;9.116;2023-01-24T14:40:20;1.70;99.90
33328;DHT22;19692;52.998;9.116;2023-01-24T14:42:58;1.70;99.90
33328;DHT22;19692;52.998;9.116;2023-01-24T14:45:30;1.80;99.90
33328;DHT22;19692;52.998;9.116;2023-01-24T14:48:01;1.80;99.90
33328;DHT22;19692;52.998;9.116;2023-01-24T14:50:34;1.70;99.90
33328;DHT22;19692;52.998;9.116;2023-01-24T14:53:23;1.60;99.90
33328;DHT22;19692;52.998;9.116;2023-01-24T14:55:54;1.60;99.90
33328;DHT22;19692;52.998;9.116;2023-01-24T14:58:24;1.70;99.90
33328;DHT22;19692;52.998;9.116;2023-01-24T15:00:54;1.80;99.90
33328;DHT22;19692;52.998;9.116;2023-01-24T15:03:32;1.70;99.90
33328;DHT22;19692;52.998;9.116;2023-01-24T15:06:04;1.70;99.90
33328;DHT22;19692;52.998;9.116;2023-01-24T15:08:32;1.80;99.90
33328;DHT22;19692;52.998;9.116;2023-01-24T15:11:06;1.80;99.90
33328;DHT22;19692;52.998;9.116;2023-01-24T15:13:55;1.70;99.90
33328;DHT22;19692;52.998;9.116;2023-01-24T15:16:47;1.50;99.90
33328;DHT22;19692;52.998;9.116;2023-01-24T15:19:25;1.50;99.90
33328;DHT22;19692;52.998;9.116;2023-01-24T15:21:53;1.50;99.90
33328;DHT22;19692;52.998;9.116;2023-01-24T15:24:25;1.60;99.90
33328;DHT22;19692;52.998;9.116;2023-01-24T15:26:52;1.50;99.90
33328;DHT22;19692;52.998;9.116;2023-01-24T15:29:46;1.50;99.90
33328;DHT22;19692;52.998;9.116;2023-01-24T15:32:29;1.50;99.90
33328;DHT22;19692;52.998;9.116;2023-01-24T15:35:16;1.50;99.90
33328;DHT22;19692;52.998;9.116;2023-01-24T15:43:41;1.20;99.90
33328;DHT22;19692;52.998;9.116;2023-01-24T15:46:31;1.20;99.90
33328;DHT22;19692;52.998;9.116;2023-01-24T15:49:31;1.20;99.90
33328;DHT22;19692;52.998;9.116;2023-01-24T15:54:36;1.30;99.90
33328;DHT22;19692;52.998;9.116;2023-01-24T15:57:09;1.20;99.90
33328;DHT22;19692;52.998;9.116;2023-01-24T16:02:34;1.20;99.90
33328;DHT22;19692;52.998;9.116;2023-01-24T16:05:00;1.10;99.90
33328;DHT22;19692;52.998;9.116;2023-01-24T16:07:26;1.10;99.90
33328;DHT22;19692;52.998;9.116;2023-01-24T16:09:52;1.10;99.90
33328;DHT22;19692;52.998;9.116;2023-01-24T16:12:21;1.20;99.90
33328;DHT22;19692;52.998;9.116;2023-01-24T16:14:50;1.20;99.90
33328;DHT22;19692;52.998;9.116;2023-01-24T16:17:18;1.30;99.90
33328;DHT22;19692;52.998;9.116;2023-01-24T16:19:51;1.30;99.90
33328;DHT22;19692;52.998;9.116;2023-01-24T16:22:16;1.20;99.90
33328;DHT22;19692;52.998;9.116;2023-01-24T16:24:43;1.20;99.90
33328;DHT22;19692;52.998;9.116;2023-01-24T16:27:13;1.30;99.90
33328;DHT22;19692;52.998;9.116;2023-01-24T16:29:39;1.30;99.90
33328;DHT22;19692;52.998;9.116;2023-01-24T16:32:22;1.20;99.90
33328;DHT22;19692;52.998;9.116;2023-01-24T16:34:53;1.20;99.90
33328;DHT22;19692;52.998;9.116;2023-01-24T16:37:19;1.20;99.90
33328;DHT22;19692;52.998;9.116;2023-01-24T16:39:45;1.20;99.90
33328;DHT22;19692;52.998;9.116;2023-01-24T16:42:18;1.30;99.90
33328;DHT22;19692;52.998;9.116;2023-01-24T16:44:54;1.30;99.90
33328;DHT22;19692;52.998;9.116;2023-01-24T16:47:21;1.30;99.90
33328;DHT22;19692;52.998;9.116;2023-01-24T16:49:52;1.30;99.90
33328;DHT22;19692;52.998;9.116;2023-01-24T16:52:19;1.30;99.90
33328;DHT22;19692;52.998;9.116;2023-01-24T16:54:45;1.40;99.90
33328;DHT22;19692;52.998;9.116;2023-01-24T16:57:11;1.40;99.90
33328;DHT22;19692;52.998;9.116;2023-01-24T16:59:36;1.40;99.90
33328;DHT22;19692;52.998;9.116;2023-01-24T17:02:02;1.40;99.90
33328;DHT22;19692;52.998;9.116;2023-01-24T17:04:28;1.30;99.90
33328;DHT22;19692;52.998;9.116;2023-01-24T17:06:54;1.30;99.90
33328;DHT22;19692;52.998;9.116;2023-01-24T17:09:25;1.10;99.90
33328;DHT22;19692;52.998;9.116;2023-01-24T17:11:51;1.00;99.90
33328;DHT22;19692;52.998;9.116;2023-01-24T17:14:17;1.00;99.90
33328;DHT22;19692;52.998;9.116;2023-01-24T17:16:42;1.00;99.90
33328;DHT22;19692;52.998;9.116;2023-01-24T17:19:08;1.10;99.90
33328;DHT22;19692;52.998;9.116;2023-01-24T17:21:34;1.00;99.90
33328;DHT22;19692;52.998;9.116;2023-01-24T17:24:00;0.90;99.90
33328;DHT22;19692;52.998;9.116;2023-01-24T17:26:25;0.90;99.90
33328;DHT22;19692;52.998;9.116;2023-01-24T17:28:51;0.90;99.90
33328;DHT22;19692;52.998;9.116;2023-01-24T17:31:18;0.90;99.90
33328;DHT22;19692;52.998;9.116;2023-01-24T17:33:45;0.90;99.90
33328;DHT22;19692;52.998;9.116;2023-01-24T17:36:12;0.80;99.90
33328;DHT22;19692;52.998;9.116;2023-01-24T17:38:39;0.70;99.90
33328;DHT22;19692;52.998;9.116;2023-01-24T17:41:05;0.70;99.90
33328;DHT22;19692;52.998;9.116;2023-01-24T17:43:31;0.60;99.90
33328;DHT22;19692;52.998;9.116;2023-01-24T17:45:58;0.60;99.90
33328;DHT22;19692;52.998;9.116;2023-01-24T17:48:25;0.70;99.90
33328;DHT22;19692;52.998;9.116;2023-01-24T17:50:51;0.70;99.90
33328;DHT22;19692;52.998;9.116;2023-01-24T17:53:18;0.70;99.90
33328;DHT22;19692;52.998;9.116;2023-01-24T17:55:44;0.70;99.90
33328;DHT22;19692;52.998;9.116;2023-01-24T17:58:12;0.60;99.90
33328;DHT22;19692;52.998;9.116;2023-01-24T18:00:38;0.70;99.90